createdAt,value
2023-03-21T00:18:22.982Z,304
2023-03-21T00:38:15.881Z,306
2023-03-21T00:58:15.874Z,303
2023-03-21T01:18:15.877Z,300
2023-03-21T01:38:15.999Z,304
2023-03-21T01:58:15.907Z,298
2023-03-21T02:18:15.871Z,303
2023-03-21T02:58:15.916Z,302
2023-03-21T03:18:15.900Z,299
2023-03-21T03:38:15.884Z,300
2023-03-21T03:58:22.076Z,298
2023-03-21T04:18:15.968Z,301
2023-03-21T04:38:16.090Z,299
2023-03-21T04:58:15.934Z,304
2023-03-21T05:18:15.938Z,295
2023-03-21T05:38:15.943Z,299
2023-03-21T05:58:15.958Z,301
2023-03-21T06:18:15.944Z,301
2023-03-21T06:38:15.966Z,301
2023-03-21T06:58:15.962Z,304
2023-03-21T07:18:15.985Z,299
2023-03-21T07:38:15.949Z,305
2023-03-21T07:58:15.946Z,295
2023-03-21T08:18:15.989Z,300
2023-03-21T08:38:15.959Z,300
2023-03-21T08:58:15.982Z,299
2023-03-21T09:18:15.990Z,297
2023-03-21T10:18:15.976Z,299
2023-03-21T10:38:15.993Z,300
2023-03-21T10:58:15.991Z,293
2023-03-21T11:18:16.144Z,297
2023-03-21T11:38:16.009Z,297
2023-03-21T11:58:16.067Z,298
2023-03-21T12:18:15.974Z,295
2023-03-21T12:38:15.997Z,288
2023-03-21T12:58:16.024Z,288
2023-03-21T13:18:16.020Z,293
2023-03-21T13:38:15.997Z,292
2023-03-21T13:58:16.027Z,297
2023-03-21T14:18:21.413Z,295
2023-03-21T14:38:16.036Z,295
2023-03-21T14:58:16.069Z,295
2023-03-21T15:18:16.313Z,287
2023-03-21T15:38:16.008Z,287
2023-03-21T15:58:16.002Z,278
2023-03-21T16:18:16.146Z,276
2023-03-21T16:38:16.010Z,284
2023-03-21T16:58:15.993Z,288
2023-03-21T17:18:16.028Z,289
2023-03-21T17:58:16.026Z,294
2023-03-21T18:18:16.013Z,295
2023-03-21T18:38:16.151Z,295
2023-03-21T20:18:16.036Z,289
2023-03-21T20:38:16.098Z,292
2023-03-21T20:58:37.030Z,293
2023-03-21T21:18:16.108Z,293
2023-03-21T21:38:16.025Z,290
2023-03-21T21:58:16.049Z,291
2023-03-21T22:18:16.032Z,294
2023-03-21T22:38:16.027Z,292
2023-03-21T22:58:23.036Z,298
2023-03-21T23:18:16.043Z,300
2023-03-21T23:58:16.035Z,297
